createdAt,value
2018-07-11T00:02:00.359Z,11.90
2018-07-11T00:04:34.706Z,10.70
2018-07-11T00:07:08.891Z,8.03
2018-07-11T00:09:43.214Z,9.30
2018-07-11T00:12:17.522Z,13.27
2018-07-11T00:14:51.852Z,11.53
2018-07-11T00:17:26.109Z,14.90
2018-07-11T00:20:00.452Z,11.80
2018-07-11T00:22:34.854Z,11.33
2018-07-11T00:25:09.165Z,8.77
2018-07-11T00:27:43.630Z,12.40
2018-07-11T00:30:17.727Z,10.57
2018-07-11T00:32:51.961Z,11.73
2018-07-11T00:35:26.298Z,9.37
2018-07-11T00:38:00.682Z,10.53
2018-07-11T00:40:35.097Z,12.30
2018-07-11T00:43:09.606Z,9.83
2018-07-11T00:45:43.898Z,8.50
2018-07-11T00:48:18.205Z,6.77
2018-07-11T00:50:52.510Z,9.60
2018-07-11T00:53:29.205Z,7.63
2018-07-11T00:56:03.410Z,8.40
2018-07-11T00:58:43.063Z,11.77
2018-07-11T01:01:17.399Z,10.03
2018-07-11T01:03:55.006Z,9.43
2018-07-11T01:06:29.562Z,15.10
2018-07-11T01:09:04.209Z,12.43
2018-07-11T01:11:38.545Z,8.97
2018-07-11T01:14:12.971Z,7.90
2018-07-11T01:16:47.235Z,11.30
2018-07-11T01:19:22.087Z,10.60
2018-07-11T01:22:03.110Z,10.67
2018-07-11T01:24:37.406Z,11.37
2018-07-11T01:27:11.759Z,8.67
2018-07-11T01:29:46.084Z,12.60
2018-07-11T01:32:20.394Z,11.07
2018-07-11T01:34:54.666Z,14.57
2018-07-11T01:37:29.023Z,10.57
2018-07-11T01:40:03.302Z,8.57
2018-07-11T01:42:37.578Z,8.40
2018-07-11T01:45:11.910Z,11.43
2018-07-11T01:47:46.257Z,8.23
2018-07-11T01:50:20.327Z,9.30
2018-07-11T01:52:57.146Z,11.07
2018-07-11T01:55:31.317Z,11.40
2018-07-11T01:58:05.622Z,13.67
2018-07-11T02:00:40.040Z,10.23
2018-07-11T02:03:14.279Z,10.43
2018-07-11T02:05:48.474Z,10.23
2018-07-11T02:08:23.526Z,11.70
2018-07-11T02:10:57.886Z,10.63
2018-07-11T02:13:32.230Z,12.57
2018-07-11T02:16:06.486Z,18.60
2018-07-11T02:18:40.594Z,13.40
2018-07-11T02:21:14.857Z,10.27
2018-07-11T02:23:49.026Z,8.87
2018-07-11T02:26:23.305Z,12.23
2018-07-11T02:28:57.954Z,12.33
2018-07-11T02:31:32.270Z,9.40
2018-07-11T02:34:06.597Z,10.97
2018-07-11T02:36:40.918Z,14.33
2018-07-11T02:39:15.194Z,10.27
2018-07-11T02:41:49.526Z,12.07
2018-07-11T02:44:23.882Z,17.60
2018-07-11T02:47:03.482Z,10.93
2018-07-11T02:49:37.513Z,14.13
2018-07-11T02:52:11.950Z,12.73
2018-07-11T02:54:46.260Z,13.93
2018-07-11T02:57:20.662Z,9.87
2018-07-11T02:59:55.070Z,13.50
2018-07-11T03:02:29.450Z,15.87
2018-07-11T03:05:03.814Z,13.33
2018-07-11T03:07:38.102Z,13.00
2018-07-11T03:10:12.399Z,14.10
2018-07-11T03:12:46.630Z,12.43
2018-07-11T03:15:20.924Z,11.23
2018-07-11T03:17:55.324Z,15.67
2018-07-11T03:20:29.618Z,11.00
2018-07-11T03:23:03.994Z,12.50
2018-07-11T03:25:38.307Z,11.53
2018-07-11T03:28:12.610Z,16.73
2018-07-11T03:30:46.915Z,11.50
2018-07-11T03:33:21.026Z,16.20
2018-07-11T03:35:55.318Z,13.27
2018-07-11T03:38:29.678Z,15.37
2018-07-11T03:41:03.945Z,11.43
2018-07-11T03:43:38.131Z,14.53
2018-07-11T03:46:12.401Z,11.20
2018-07-11T03:48:46.567Z,12.63
2018-07-11T03:51:20.844Z,11.80
2018-07-11T03:53:55.194Z,21.30
2018-07-11T03:56:29.474Z,11.70
2018-07-11T03:59:03.821Z,11.40
2018-07-11T04:01:38.210Z,12.77
2018-07-11T04:04:12.661Z,14.00
2018-07-11T04:06:46.965Z,16.03
2018-07-11T04:09:21.437Z,16.80
2018-07-11T04:11:55.713Z,11.30
2018-07-11T04:14:29.994Z,12.73
2018-07-11T04:17:04.334Z,12.53
2018-07-11T04:19:38.606Z,14.07
2018-07-11T04:22:12.865Z,10.40
2018-07-11T04:24:47.269Z,14.03
2018-07-11T04:27:21.599Z,14.17
2018-07-11T04:29:55.949Z,13.43
2018-07-11T04:32:30.218Z,14.07
2018-07-11T04:35:04.391Z,15.33
2018-07-11T04:37:38.816Z,12.33
2018-07-11T04:40:13.068Z,12.73
2018-07-11T04:42:47.409Z,11.57
2018-07-11T04:45:22.607Z,15.07
2018-07-11T04:47:56.913Z,10.03
2018-07-11T04:50:30.985Z,11.27
2018-07-11T04:53:07.617Z,13.10
2018-07-11T04:55:42.526Z,14.60
2018-07-11T04:58:16.726Z,14.63
2018-07-11T05:00:50.982Z,12.70
2018-07-11T05:03:25.740Z,11.73
2018-07-11T05:06:00.086Z,13.57
2018-07-11T05:08:34.419Z,13.00
2018-07-11T05:11:08.650Z,12.50
2018-07-11T05:13:42.897Z,14.80
2018-07-11T05:16:17.500Z,13.57
2018-07-11T05:18:51.629Z,11.90
2018-07-11T05:21:25.910Z,13.53
2018-07-11T05:24:00.190Z,12.13
2018-07-11T05:26:34.443Z,14.13
2018-07-11T05:29:09.067Z,13.63
2018-07-11T05:31:43.411Z,13.13
2018-07-11T05:34:17.845Z,10.10
2018-07-11T05:36:52.665Z,11.43
2018-07-11T05:39:27.021Z,14.83
2018-07-11T05:42:01.314Z,14.77
2018-07-11T05:44:35.619Z,15.87
2018-07-11T05:47:10.023Z,11.00
2018-07-11T05:49:44.267Z,18.50
2018-07-11T05:52:18.679Z,22.27
2018-07-11T05:54:53.051Z,11.20
2018-07-11T05:57:27.342Z,15.43
2018-07-11T06:00:01.627Z,13.23
2018-07-11T06:02:36.108Z,16.97
2018-07-11T06:05:10.318Z,14.60
2018-07-11T06:07:44.621Z,18.07
2018-07-11T06:10:19.058Z,14.27
2018-07-11T06:12:53.393Z,13.37
2018-07-11T06:15:27.615Z,13.27
2018-07-11T06:18:01.898Z,11.33
2018-07-11T06:20:36.214Z,14.97
2018-07-11T06:23:10.540Z,13.43
2018-07-11T06:25:44.827Z,12.80
2018-07-11T06:28:19.107Z,13.97
2018-07-11T06:30:53.306Z,16.40
2018-07-11T06:33:27.722Z,12.83
2018-07-11T06:36:01.999Z,15.37
2018-07-11T06:38:36.484Z,16.87
2018-07-11T06:41:10.828Z,25.50
2018-07-11T06:43:45.216Z,22.40
2018-07-11T06:46:19.529Z,23.03
2018-07-11T06:48:53.714Z,48.30
2018-07-11T06:51:28.034Z,25.10
2018-07-11T06:54:02.329Z,24.80
2018-07-11T06:56:36.811Z,25.50
2018-07-11T06:59:11.070Z,19.53
2018-07-11T07:01:45.361Z,20.30
2018-07-11T07:04:19.812Z,22.73
2018-07-11T07:06:54.390Z,26.33
2018-07-11T07:09:28.549Z,26.63
2018-07-11T07:12:02.786Z,26.57
2018-07-11T07:14:37.118Z,24.33
2018-07-11T07:17:11.437Z,28.07
2018-07-11T07:19:45.726Z,26.77
2018-07-11T07:22:20.154Z,23.90
2018-07-11T07:24:54.548Z,24.83
2018-07-11T07:27:28.882Z,28.03
2018-07-11T07:30:03.167Z,33.60
2018-07-11T07:32:37.515Z,31.17
2018-07-11T07:35:11.835Z,32.50
2018-07-11T07:37:46.011Z,28.60
2018-07-11T07:40:20.302Z,42.40
2018-07-11T07:42:54.481Z,38.23
2018-07-11T07:45:28.886Z,36.50
2018-07-11T07:48:03.099Z,33.00
2018-07-11T07:50:37.538Z,41.17
2018-07-11T07:53:11.766Z,35.87
2018-07-11T07:55:46.105Z,32.53
2018-07-11T07:58:20.401Z,33.37
2018-07-11T08:00:54.702Z,30.77
2018-07-11T08:03:28.965Z,31.87
2018-07-11T08:06:03.025Z,34.93
2018-07-11T08:08:37.426Z,29.80
2018-07-11T08:11:11.697Z,34.80
2018-07-11T08:13:45.977Z,29.10
2018-07-11T08:16:20.435Z,28.23
2018-07-11T08:18:54.904Z,27.93
2018-07-11T08:21:29.390Z,24.20
2018-07-11T08:24:15.029Z,24.10
2018-07-11T08:26:57.961Z,26.90
2018-07-11T08:31:47.281Z,26.50
2018-07-11T08:34:32.411Z,26.50
2018-07-11T08:37:18.155Z,25.37
2018-07-11T08:40:14.461Z,29.57
2018-07-11T08:45:02.165Z,24.33
2018-07-11T08:49:53.728Z,21.27
2018-07-11T08:52:43.193Z,23.73
2018-07-11T08:57:32.056Z,28.70
2018-07-11T09:00:21.015Z,24.03
2018-07-11T09:03:08.199Z,25.13
2018-07-11T09:05:58.538Z,23.70
2018-07-11T09:08:49.001Z,23.73
2018-07-11T09:15:43.514Z,26.43
2018-07-11T09:20:34.310Z,23.60
2018-07-11T09:24:00.405Z,25.60
2018-07-11T09:26:34.744Z,24.90
2018-07-11T09:29:09.086Z,26.17
2018-07-11T09:31:43.312Z,29.37
2018-07-11T09:34:17.618Z,26.43
2018-07-11T09:36:52.578Z,23.07
2018-07-11T09:39:26.921Z,29.93
2018-07-11T09:42:01.278Z,27.30
2018-07-11T09:44:35.472Z,23.63
2018-07-11T09:47:15.157Z,20.20
2018-07-11T09:49:49.193Z,29.63
2018-07-11T09:52:23.607Z,18.20
2018-07-11T09:54:57.938Z,22.53
2018-07-11T09:57:33.321Z,16.97
2018-07-11T10:00:12.161Z,18.60
2018-07-11T10:02:46.511Z,18.57
2018-07-11T10:05:20.831Z,21.43
2018-07-11T10:07:55.158Z,15.53
2018-07-11T10:10:29.470Z,15.23
2018-07-11T10:13:03.801Z,14.97
2018-07-11T10:15:38.006Z,14.07
2018-07-11T10:18:12.278Z,18.43
2018-07-11T10:20:46.546Z,19.63
2018-07-11T10:23:20.858Z,16.83
2018-07-11T10:25:55.318Z,15.17
2018-07-11T10:28:29.444Z,22.60
2018-07-11T10:31:03.734Z,20.03
2018-07-11T10:33:37.932Z,19.53
2018-07-11T10:36:12.370Z,21.30
2018-07-11T10:38:46.707Z,16.93
2018-07-11T10:41:20.965Z,22.33
2018-07-11T10:43:55.273Z,22.30
2018-07-11T10:46:29.468Z,22.07
2018-07-11T10:49:03.751Z,24.63
2018-07-11T10:51:38.177Z,24.93
2018-07-11T10:54:12.369Z,22.07
2018-07-11T10:56:46.562Z,18.77
2018-07-11T10:59:20.869Z,22.33
2018-07-11T11:01:55.185Z,19.60
2018-07-11T11:04:29.839Z,22.07
2018-07-11T11:07:04.094Z,21.53
2018-07-11T11:09:38.345Z,18.10
2018-07-11T11:12:12.914Z,14.13
2018-07-11T11:14:47.139Z,14.50
2018-07-11T11:17:21.496Z,12.77
2018-07-11T11:19:55.815Z,16.63
2018-07-11T11:22:30.188Z,17.13
2018-07-11T11:25:04.521Z,16.33
2018-07-11T11:27:38.853Z,16.97
2018-07-11T11:30:13.149Z,19.50
2018-07-11T11:32:47.530Z,16.73
2018-07-11T11:35:21.809Z,18.27
2018-07-11T11:37:56.139Z,17.13
2018-07-11T11:40:30.404Z,19.53
2018-07-11T11:43:04.731Z,22.23
2018-07-11T11:45:39.067Z,17.43
2018-07-11T11:48:13.358Z,24.63
2018-07-11T11:50:47.685Z,21.23
2018-07-11T11:53:21.961Z,23.23
2018-07-11T11:55:56.384Z,23.07
2018-07-11T11:58:30.745Z,18.23
2018-07-11T12:01:04.950Z,20.83
2018-07-11T12:03:39.217Z,18.43
2018-07-11T12:06:13.471Z,18.80
2018-07-11T12:08:47.805Z,21.03
2018-07-11T12:11:22.137Z,21.87
2018-07-11T12:13:56.088Z,19.03
2018-07-11T12:16:30.265Z,21.87
2018-07-11T12:19:04.570Z,17.70
2018-07-11T12:21:39.308Z,17.43
2018-07-11T12:24:13.621Z,14.73
2018-07-11T12:26:48.029Z,15.23
2018-07-11T12:29:22.209Z,15.40
2018-07-11T12:31:56.492Z,16.73
2018-07-11T12:34:30.846Z,16.37
2018-07-11T12:37:05.271Z,15.17
2018-07-11T12:39:39.584Z,15.57
2018-07-11T12:42:13.877Z,14.47
2018-07-11T12:44:48.287Z,13.73
2018-07-11T12:47:27.794Z,13.70
2018-07-11T12:50:01.963Z,17.43
2018-07-11T12:52:36.289Z,13.37
2018-07-11T12:55:10.615Z,14.73
2018-07-11T12:57:44.918Z,13.60
2018-07-11T13:00:19.234Z,14.00
2018-07-11T13:02:53.802Z,14.03
2018-07-11T13:05:28.158Z,15.43
2018-07-11T13:08:02.475Z,16.90
2018-07-11T13:10:37.094Z,14.23
2018-07-11T13:13:11.428Z,16.47
2018-07-11T13:15:45.700Z,14.27
2018-07-11T13:18:20.118Z,11.30
2018-07-11T13:20:54.409Z,8.17
2018-07-11T13:23:28.738Z,5.60
2018-07-11T13:26:03.199Z,5.90
2018-07-11T13:28:37.558Z,4.63
2018-07-11T13:31:11.591Z,4.90
2018-07-11T13:33:45.826Z,5.67
2018-07-11T13:36:20.203Z,5.53
2018-07-11T13:38:54.432Z,4.20
2018-07-11T13:41:28.587Z,4.77
2018-07-11T13:44:02.847Z,5.10
2018-07-11T13:46:37.132Z,4.97
2018-07-11T13:49:12.182Z,4.83
2018-07-11T13:51:46.445Z,4.67
2018-07-11T13:54:20.794Z,5.13
2018-07-11T13:56:55.054Z,5.50
2018-07-11T13:59:29.294Z,5.10
2018-07-11T14:02:03.590Z,4.90
2018-07-11T14:04:37.770Z,5.40
2018-07-11T14:07:12.014Z,5.97
2018-07-11T14:09:46.266Z,6.90
2018-07-11T14:12:20.531Z,5.63
2018-07-11T14:14:54.910Z,6.23
2018-07-11T14:17:29.154Z,5.67
2018-07-11T14:20:04.316Z,5.63
2018-07-11T14:22:39.020Z,5.67
2018-07-11T14:25:13.350Z,6.00
2018-07-11T14:27:48.804Z,6.10
2018-07-11T14:30:23.939Z,8.67
2018-07-11T14:33:02.701Z,8.87
2018-07-11T14:35:36.998Z,9.50
2018-07-11T14:38:11.362Z,9.33
2018-07-11T14:40:45.727Z,10.30
2018-07-11T14:43:20.268Z,9.03
2018-07-11T14:45:54.588Z,9.00
2018-07-11T14:48:29.890Z,10.67
2018-07-11T14:51:04.167Z,9.40
2018-07-11T14:53:38.502Z,9.27
2018-07-11T14:56:12.806Z,9.13
2018-07-11T14:58:47.066Z,9.23
2018-07-11T15:01:21.995Z,9.17
2018-07-11T15:03:56.314Z,8.60
2018-07-11T15:06:30.597Z,10.27
2018-07-11T15:09:05.313Z,11.13
2018-07-11T15:11:39.285Z,9.13
2018-07-11T15:14:13.603Z,9.13
2018-07-11T15:16:47.887Z,11.53
2018-07-11T15:19:22.273Z,13.60
2018-07-11T15:21:56.518Z,10.27
2018-07-11T15:24:30.763Z,10.40
2018-07-11T15:27:05.172Z,8.73
2018-07-11T15:29:39.653Z,9.63
2018-07-11T15:32:13.876Z,10.27
2018-07-11T15:34:48.229Z,9.17
2018-07-11T15:37:22.614Z,8.60
2018-07-11T15:39:57.537Z,9.80
2018-07-11T15:42:31.790Z,9.10
2018-07-11T15:45:06.522Z,9.87
2018-07-11T15:47:43.505Z,10.20
2018-07-11T15:50:17.770Z,9.77
2018-07-11T15:52:52.071Z,12.33
2018-07-11T15:55:26.390Z,10.67
2018-07-11T15:58:06.654Z,9.40
2018-07-11T16:00:42.154Z,8.07
2018-07-11T16:03:17.333Z,10.90
2018-07-11T16:05:51.925Z,9.47
2018-07-11T16:08:26.047Z,9.20
2018-07-11T16:11:03.608Z,8.33
2018-07-11T16:13:37.753Z,9.43
2018-07-11T16:16:12.073Z,9.53
2018-07-11T16:18:46.430Z,9.37
2018-07-11T16:21:20.755Z,9.07
2018-07-11T16:23:55.125Z,9.93
2018-07-11T16:26:29.351Z,9.67
2018-07-11T16:29:03.645Z,9.67
2018-07-11T16:31:38.002Z,11.33
2018-07-11T16:34:12.326Z,11.37
2018-07-11T16:36:46.596Z,9.20
2018-07-11T16:39:21.962Z,9.00
2018-07-11T16:41:56.298Z,12.27
2018-07-11T16:44:30.546Z,10.63
2018-07-11T16:47:06.533Z,8.53
2018-07-11T16:49:42.013Z,7.77
2018-07-11T16:52:16.361Z,7.73
2018-07-11T16:54:50.669Z,7.57
2018-07-11T16:57:49.444Z,8.43
2018-07-11T17:00:27.750Z,7.90
2018-07-11T17:03:06.737Z,7.77
2018-07-11T17:05:47.127Z,8.27
2018-07-11T17:08:29.014Z,8.20
2018-07-11T17:11:15.895Z,9.80
2018-07-11T17:13:55.867Z,9.17
2018-07-11T17:16:43.140Z,12.07
2018-07-11T17:19:25.306Z,10.30
2018-07-11T17:21:59.916Z,11.17
2018-07-11T17:24:42.462Z,11.60
2018-07-11T17:27:18.781Z,12.50
2018-07-11T17:29:56.254Z,12.93
2018-07-11T17:32:30.844Z,14.60
2018-07-11T17:35:05.263Z,10.77
2018-07-11T17:37:39.634Z,11.77
2018-07-11T17:40:13.873Z,11.13
2018-07-11T17:42:48.138Z,11.70
2018-07-11T17:45:23.199Z,10.63
2018-07-11T17:48:06.135Z,13.20
2018-07-11T17:50:40.376Z,11.90
2018-07-11T17:53:21.386Z,12.30
2018-07-11T17:56:06.289Z,14.90
2018-07-11T17:58:58.626Z,13.57
2018-07-11T18:01:38.766Z,15.20
2018-07-11T18:04:22.718Z,15.47
2018-07-11T18:07:05.087Z,14.00
2018-07-11T18:09:50.542Z,20.33
2018-07-11T18:12:26.470Z,20.77
2018-07-11T18:15:05.657Z,14.13
2018-07-11T18:18:22.213Z,14.70
2018-07-11T18:23:09.822Z,15.27
2018-07-11T18:27:56.181Z,14.73
2018-07-11T18:32:44.266Z,16.90
2018-07-11T18:35:22.991Z,15.40
2018-07-11T18:38:08.708Z,16.30
2018-07-11T18:40:55.889Z,16.17
2018-07-11T18:43:39.739Z,15.83
2018-07-11T18:46:25.771Z,15.60
2018-07-11T18:49:13.210Z,16.43
2018-07-11T18:51:55.261Z,18.27
2018-07-11T18:54:39.658Z,17.00
2018-07-11T18:57:20.687Z,16.90
2018-07-11T19:00:05.446Z,20.07
2018-07-11T19:02:47.851Z,15.40
2018-07-11T19:05:37.295Z,16.00
2018-07-11T19:08:23.317Z,15.77
2018-07-11T19:11:08.122Z,18.67
2018-07-11T19:13:46.182Z,13.77
2018-07-11T19:17:31.584Z,17.27
2018-07-11T19:20:14.182Z,17.20
2018-07-11T19:22:58.819Z,15.20
2018-07-11T19:25:40.618Z,20.03
2018-07-11T19:28:21.381Z,18.27
2018-07-11T19:31:03.601Z,17.50
2018-07-11T19:35:54.439Z,16.20
2018-07-11T19:38:36.562Z,14.97
2018-07-11T19:41:17.142Z,18.20
2018-07-11T19:43:58.164Z,14.33
2018-07-11T19:48:46.579Z,16.57
2018-07-11T19:51:33.102Z,16.63
2018-07-11T19:54:15.637Z,17.97
2018-07-11T19:56:50.110Z,16.60
2018-07-11T19:59:24.928Z,16.43
2018-07-11T20:01:59.758Z,14.97
2018-07-11T20:04:34.764Z,14.77
2018-07-11T20:07:09.126Z,16.57
2018-07-11T20:09:43.434Z,16.20
2018-07-11T20:12:17.639Z,17.70
2018-07-11T20:14:51.861Z,16.40
2018-07-11T20:17:26.106Z,18.97
2018-07-11T20:20:00.775Z,16.83
2018-07-11T20:22:35.178Z,15.93
2018-07-11T20:25:09.354Z,14.07
2018-07-11T20:27:43.702Z,14.33
2018-07-11T20:30:17.964Z,14.70
2018-07-11T20:32:52.442Z,13.73
2018-07-11T20:35:26.897Z,12.80
2018-07-11T20:38:01.160Z,12.43
2018-07-11T20:40:35.542Z,12.17
2018-07-11T20:43:09.966Z,14.13
2018-07-11T20:45:44.225Z,11.97
2018-07-11T20:48:18.641Z,11.20
2018-07-11T20:50:52.807Z,14.30
2018-07-11T20:53:27.364Z,10.53
2018-07-11T20:56:01.694Z,11.07
2018-07-11T20:58:47.550Z,12.43
2018-07-11T21:01:33.350Z,14.13
2018-07-11T21:04:34.227Z,16.87
2018-07-11T21:07:28.482Z,27.27
2018-07-11T21:10:18.749Z,16.43
2018-07-11T21:13:14.356Z,10.33
2018-07-11T21:15:57.866Z,12.93
2018-07-11T21:18:38.030Z,10.67
2018-07-11T21:21:12.339Z,18.27
2018-07-11T21:23:46.529Z,17.37
2018-07-11T21:26:21.118Z,11.73
2018-07-11T21:28:55.357Z,12.37
2018-07-11T21:31:29.733Z,11.43
2018-07-11T21:34:04.175Z,12.37
2018-07-11T21:36:38.434Z,15.67
2018-07-11T21:39:12.778Z,12.67
2018-07-11T21:41:47.086Z,19.83
2018-07-11T21:44:21.402Z,14.13
2018-07-11T21:46:55.611Z,16.43
2018-07-11T21:49:29.815Z,17.83
2018-07-11T21:52:04.110Z,17.50
2018-07-11T21:54:38.498Z,16.23
2018-07-11T21:57:12.785Z,17.13
2018-07-11T21:59:47.179Z,19.80
2018-07-11T22:02:21.565Z,22.67
2018-07-11T22:04:55.777Z,23.57
2018-07-11T22:07:30.235Z,20.23
2018-07-11T22:10:04.478Z,19.87
2018-07-11T22:12:38.790Z,21.47
2018-07-11T22:15:13.178Z,21.20
2018-07-11T22:17:59.144Z,17.90
2018-07-11T22:20:33.577Z,19.10
2018-07-11T22:23:06.854Z,21.77
2018-07-11T22:25:40.267Z,20.60
2018-07-11T22:28:13.870Z,20.63
2018-07-11T22:30:47.330Z,19.57
2018-07-11T22:33:20.853Z,20.63
2018-07-11T22:35:54.283Z,24.10
2018-07-11T22:38:27.630Z,18.53
2018-07-11T22:41:00.908Z,19.13
2018-07-11T22:43:34.229Z,17.83
2018-07-11T22:46:08.062Z,17.53
2018-07-11T22:48:41.443Z,18.70
2018-07-11T22:51:14.711Z,22.20
2018-07-11T22:53:47.954Z,18.30
2018-07-11T22:56:21.441Z,18.73
2018-07-11T22:58:54.755Z,21.57
2018-07-11T23:01:28.039Z,17.77
2018-07-11T23:04:01.462Z,18.53
2018-07-11T23:06:34.820Z,27.53
2018-07-11T23:09:08.190Z,21.07
2018-07-11T23:11:41.647Z,24.93
2018-07-11T23:14:15.034Z,32.77
2018-07-11T23:16:48.602Z,20.67
2018-07-11T23:19:22.012Z,24.97
2018-07-11T23:21:55.427Z,20.23
2018-07-11T23:24:28.718Z,28.50
2018-07-11T23:27:01.990Z,23.20
2018-07-11T23:29:35.249Z,23.50
2018-07-11T23:32:08.558Z,22.20
2018-07-11T23:34:41.810Z,28.97
2018-07-11T23:37:15.179Z,33.00
2018-07-11T23:39:48.456Z,33.13
2018-07-11T23:42:21.730Z,24.77
2018-07-11T23:44:54.974Z,28.77
2018-07-11T23:47:28.338Z,32.20
2018-07-11T23:50:01.594Z,33.10
2018-07-11T23:52:34.919Z,32.37
2018-07-11T23:55:08.294Z,30.50
2018-07-11T23:57:41.555Z,31.70
